createdAt,value
2019-03-27T00:02:18.823Z,16.00
2019-03-27T00:04:48.329Z,13.27
2019-03-27T00:07:18.554Z,16.40
2019-03-27T00:09:48.234Z,13.53
2019-03-27T00:12:18.559Z,20.27
2019-03-27T00:14:47.926Z,17.53
2019-03-27T00:17:18.574Z,17.67
2019-03-27T00:19:47.952Z,15.63
2019-03-27T00:22:18.586Z,14.80
2019-03-27T00:24:48.264Z,19.33
2019-03-27T00:27:18.590Z,16.70
2019-03-27T00:29:48.248Z,15.67
2019-03-27T00:32:18.609Z,21.55
2019-03-27T00:34:48.338Z,21.20
2019-03-27T00:37:18.794Z,21.07
2019-03-27T00:39:48.368Z,19.60
2019-03-27T00:42:18.631Z,20.10
2019-03-27T00:44:48.363Z,21.87
2019-03-27T00:47:18.631Z,22.10
2019-03-27T00:49:48.019Z,19.67
2019-03-27T00:52:18.643Z,19.35
2019-03-27T00:54:48.351Z,18.13
2019-03-27T00:57:18.640Z,20.97
2019-03-27T00:59:48.381Z,19.87
2019-03-27T01:02:18.666Z,21.00
2019-03-27T01:04:48.377Z,20.07
2019-03-27T01:07:18.649Z,19.15
2019-03-27T01:09:48.022Z,21.37
2019-03-27T01:12:18.665Z,20.95
2019-03-27T01:14:48.379Z,19.27
2019-03-27T01:17:18.676Z,19.40
2019-03-27T01:19:48.403Z,19.17
2019-03-27T01:22:18.668Z,23.60
2019-03-27T01:24:48.027Z,20.17
2019-03-27T01:27:18.691Z,20.08
2019-03-27T01:29:48.398Z,19.30
2019-03-27T01:32:18.690Z,20.15
2019-03-27T01:34:48.404Z,20.20
2019-03-27T01:37:18.708Z,19.57
2019-03-27T01:39:48.406Z,18.80
2019-03-27T01:42:18.708Z,19.90
2019-03-27T01:44:48.418Z,21.37
2019-03-27T01:47:18.708Z,21.48
2019-03-27T01:49:48.440Z,20.73
2019-03-27T01:52:18.715Z,20.85
2019-03-27T01:54:48.428Z,21.80
2019-03-27T01:57:18.717Z,21.80
2019-03-27T01:59:48.463Z,22.67
2019-03-27T02:02:18.715Z,23.85
2019-03-27T02:04:48.431Z,24.00
2019-03-27T02:07:18.723Z,20.08
2019-03-27T02:09:48.467Z,21.13
2019-03-27T02:12:18.738Z,20.48
2019-03-27T02:14:48.387Z,22.03
2019-03-27T02:17:18.763Z,19.27
2019-03-27T02:19:48.458Z,20.73
2019-03-27T02:22:18.719Z,23.38
2019-03-27T02:24:48.427Z,23.87
2019-03-27T02:27:18.730Z,25.15
2019-03-27T02:29:48.423Z,20.80
2019-03-27T02:32:20.920Z,24.20
2019-03-27T02:34:51.716Z,23.70
2019-03-27T02:37:21.715Z,21.37
2019-03-27T02:39:51.547Z,24.60
2019-03-27T02:42:21.035Z,25.20
2019-03-27T02:44:50.530Z,26.83
2019-03-27T02:47:19.964Z,28.33
2019-03-27T02:49:49.551Z,31.40
2019-03-27T02:52:18.973Z,24.87
2019-03-27T02:54:48.555Z,29.43
2019-03-27T02:57:18.798Z,22.62
2019-03-27T02:59:48.218Z,27.50
2019-03-27T03:02:18.787Z,22.48
2019-03-27T03:04:48.593Z,28.57
2019-03-27T03:07:18.806Z,27.65
2019-03-27T03:09:48.644Z,26.07
2019-03-27T03:12:18.791Z,27.55
2019-03-27T03:14:48.198Z,26.73
2019-03-27T03:17:18.809Z,25.97
2019-03-27T03:19:48.204Z,37.07
2019-03-27T03:22:18.797Z,30.25
2019-03-27T03:24:48.199Z,31.13
2019-03-27T03:27:18.848Z,28.60
2019-03-27T03:29:48.897Z,32.43
2019-03-27T03:32:18.816Z,30.60
2019-03-27T03:34:48.717Z,32.33
2019-03-27T03:37:18.892Z,34.27
2019-03-27T03:39:48.585Z,32.10
2019-03-27T03:42:18.855Z,32.20
2019-03-27T03:44:48.572Z,31.90
2019-03-27T03:47:18.854Z,30.43
2019-03-27T03:49:48.365Z,30.33
2019-03-27T03:52:19.531Z,30.60
2019-03-27T03:54:49.444Z,34.80
2019-03-27T03:57:19.091Z,30.67
2019-03-27T03:59:48.633Z,35.60
2019-03-27T04:02:19.234Z,29.32
2019-03-27T04:04:48.626Z,32.27
2019-03-27T04:07:18.880Z,35.65
2019-03-27T04:09:48.639Z,32.63
2019-03-27T04:12:18.889Z,30.75
2019-03-27T04:14:48.650Z,36.13
2019-03-27T04:17:18.879Z,33.13
2019-03-27T04:19:48.596Z,32.57
2019-03-27T04:22:18.884Z,29.15
2019-03-27T04:24:48.628Z,34.70
2019-03-27T04:27:18.917Z,32.00
2019-03-27T04:29:48.704Z,33.07
2019-03-27T04:32:18.946Z,35.52
2019-03-27T04:34:48.671Z,35.83
2019-03-27T04:37:18.934Z,35.60
2019-03-27T04:39:48.700Z,32.97
2019-03-27T04:42:18.945Z,33.85
2019-03-27T04:44:48.328Z,37.07
2019-03-27T04:47:31.495Z,42.15
2019-03-27T04:49:50.172Z,40.17
2019-03-27T04:52:19.882Z,33.23
2019-03-27T04:54:49.318Z,41.13
2019-03-27T04:57:19.058Z,31.40
2019-03-27T04:59:48.726Z,35.33
2019-03-27T05:02:19.048Z,38.13
2019-03-27T05:04:49.050Z,38.27
2019-03-27T05:07:19.334Z,31.10
2019-03-27T05:09:48.826Z,33.47
2019-03-27T05:12:19.027Z,30.85
2019-03-27T05:14:48.766Z,32.60
2019-03-27T05:17:19.082Z,32.00
2019-03-27T05:19:48.791Z,34.30
2019-03-27T05:22:19.042Z,32.78
2019-03-27T05:24:48.720Z,36.97
2019-03-27T05:29:58.860Z,34.23
2019-03-27T05:32:41.144Z,35.10
2019-03-27T05:35:22.972Z,32.97
2019-03-27T05:38:05.346Z,29.37
2019-03-27T05:40:48.061Z,31.87
2019-03-27T05:43:30.826Z,30.53
2019-03-27T05:46:13.017Z,38.57
2019-03-27T05:48:54.947Z,31.33
2019-03-27T05:51:36.875Z,30.20
2019-03-27T05:54:18.920Z,29.43
2019-03-27T05:57:00.628Z,32.77
2019-03-27T05:59:42.680Z,31.50
2019-03-27T06:02:24.194Z,30.27
2019-03-27T06:05:06.602Z,34.87
2019-03-27T06:07:48.813Z,32.03
2019-03-27T06:10:31.518Z,33.00
2019-03-27T06:13:13.700Z,33.27
2019-03-27T06:15:55.252Z,34.30
2019-03-27T06:18:37.649Z,29.87
2019-03-27T06:21:19.163Z,31.97
2019-03-27T06:24:01.005Z,34.57
2019-03-27T06:26:43.690Z,34.27
2019-03-27T06:32:08.063Z,33.30
2019-03-27T06:34:50.395Z,35.78
2019-03-27T06:37:32.924Z,34.90
2019-03-27T06:40:02.379Z,36.73
2019-03-27T06:42:52.924Z,34.13
2019-03-27T06:45:42.169Z,30.67
2019-03-27T06:48:26.398Z,31.70
2019-03-27T06:51:07.238Z,35.00
2019-03-27T06:53:49.368Z,36.35
2019-03-27T06:56:31.885Z,35.70
2019-03-27T06:59:13.528Z,34.50
2019-03-27T07:01:55.829Z,33.43
2019-03-27T07:04:38.462Z,37.35
2019-03-27T07:07:20.102Z,38.03
2019-03-27T07:10:02.724Z,35.47
2019-03-27T07:12:44.897Z,36.23
2019-03-27T07:15:26.823Z,34.63
2019-03-27T07:18:09.242Z,38.17
2019-03-27T07:20:50.682Z,39.20
2019-03-27T07:23:30.641Z,36.63
2019-03-27T07:26:19.523Z,39.57
2019-03-27T07:29:08.524Z,40.13
2019-03-27T07:32:16.838Z,38.47
2019-03-27T07:35:25.407Z,37.73
2019-03-27T07:38:33.733Z,41.73
2019-03-27T07:41:53.632Z,36.13
2019-03-27T07:44:51.984Z,36.17
2019-03-27T07:47:36.045Z,38.30
2019-03-27T07:50:18.035Z,37.57
2019-03-27T07:52:59.923Z,39.30
2019-03-27T07:55:41.493Z,44.07
2019-03-27T07:58:23.462Z,36.40
2019-03-27T08:01:05.917Z,38.80
2019-03-27T08:03:48.080Z,34.37
2019-03-27T08:06:30.092Z,37.37
2019-03-27T08:09:12.500Z,35.03
2019-03-27T08:11:54.858Z,34.87
2019-03-27T08:14:36.580Z,39.83
2019-03-27T08:17:18.683Z,39.03
2019-03-27T08:20:00.377Z,37.40
2019-03-27T08:22:42.175Z,33.78
2019-03-27T08:25:24.114Z,37.60
2019-03-27T08:28:06.011Z,31.90
2019-03-27T08:30:47.643Z,30.92
2019-03-27T08:33:29.962Z,31.23
2019-03-27T08:36:11.892Z,38.30
2019-03-27T08:38:53.890Z,34.93
2019-03-27T08:41:36.124Z,36.75
2019-03-27T08:44:18.357Z,53.00
2019-03-27T08:47:00.159Z,40.73
2019-03-27T08:49:42.216Z,35.93
2019-03-27T08:52:24.100Z,36.77
2019-03-27T08:55:05.819Z,34.70
2019-03-27T08:57:47.881Z,38.27
2019-03-27T09:00:29.391Z,33.67
2019-03-27T09:03:11.181Z,34.93
2019-03-27T09:05:55.082Z,34.17
2019-03-27T09:08:36.592Z,35.87
2019-03-27T09:11:18.444Z,32.17
2019-03-27T09:14:00.189Z,39.73
2019-03-27T09:16:41.796Z,34.63
2019-03-27T09:19:35.054Z,37.83
2019-03-27T09:24:50.344Z,28.57
2019-03-27T09:27:32.407Z,28.70
2019-03-27T09:30:15.639Z,26.53
2019-03-27T09:32:58.016Z,28.63
2019-03-27T09:35:40.271Z,25.73
2019-03-27T09:38:22.248Z,25.33
2019-03-27T09:41:03.927Z,26.10
2019-03-27T09:43:45.872Z,24.73
2019-03-27T09:46:28.155Z,22.97
2019-03-27T09:49:10.130Z,25.07
2019-03-27T09:51:51.821Z,25.37
2019-03-27T09:54:33.706Z,24.13
2019-03-27T09:57:16.102Z,25.93
2019-03-27T09:59:58.012Z,23.80
2019-03-27T10:02:40.270Z,22.77
2019-03-27T10:05:22.632Z,20.70
2019-03-27T10:10:47.819Z,17.17
2019-03-27T10:13:57.619Z,15.23
2019-03-27T10:17:06.022Z,19.30
2019-03-27T10:20:03.234Z,18.70
2019-03-27T10:23:06.776Z,18.13
2019-03-27T10:26:15.124Z,26.37
2019-03-27T10:29:05.825Z,21.03
2019-03-27T10:31:56.300Z,21.33
2019-03-27T10:34:46.853Z,25.17
2019-03-27T10:37:55.197Z,21.00
2019-03-27T10:40:45.862Z,18.63
2019-03-27T10:43:34.785Z,19.47
2019-03-27T10:46:25.260Z,24.30
2019-03-27T10:49:27.253Z,23.53
2019-03-27T10:52:09.424Z,22.10
2019-03-27T10:54:51.898Z,20.03
2019-03-27T10:57:33.740Z,18.73
2019-03-27T11:00:15.807Z,19.13
2019-03-27T11:02:58.056Z,20.93
2019-03-27T11:05:40.210Z,21.73
2019-03-27T11:08:21.967Z,20.70
2019-03-27T11:11:04.005Z,19.00
2019-03-27T11:13:46.504Z,20.10
2019-03-27T11:16:27.969Z,17.03
2019-03-27T11:19:10.395Z,15.43
2019-03-27T11:21:51.987Z,16.17
2019-03-27T11:24:33.973Z,18.70
2019-03-27T11:27:15.786Z,18.23
2019-03-27T11:29:58.273Z,19.77
2019-03-27T11:32:40.470Z,16.47
2019-03-27T11:35:22.440Z,18.00
2019-03-27T11:38:04.017Z,16.47
2019-03-27T11:40:46.423Z,18.00
2019-03-27T11:46:10.501Z,15.73
2019-03-27T11:48:52.175Z,18.00
2019-03-27T11:51:34.143Z,21.33
2019-03-27T11:54:16.321Z,16.00
2019-03-27T11:56:57.975Z,16.07
2019-03-27T11:59:52.982Z,15.93
2019-03-27T12:02:23.608Z,17.27
2019-03-27T12:05:06.168Z,15.40
2019-03-27T12:07:48.005Z,16.33
2019-03-27T12:10:30.187Z,12.93
2019-03-27T12:13:12.512Z,16.13
2019-03-27T12:15:54.064Z,17.17
2019-03-27T12:18:36.090Z,17.70
2019-03-27T12:21:17.993Z,17.53
2019-03-27T12:24:00.474Z,15.80
2019-03-27T12:26:42.335Z,16.23
2019-03-27T12:29:24.891Z,15.77
2019-03-27T12:32:07.533Z,15.23
2019-03-27T12:34:50.487Z,15.70
2019-03-27T12:37:32.639Z,16.03
2019-03-27T12:40:14.603Z,14.50
2019-03-27T12:42:56.643Z,17.57
2019-03-27T12:45:39.042Z,15.00
2019-03-27T12:48:21.387Z,16.67
2019-03-27T12:51:12.842Z,13.43
2019-03-27T12:53:46.704Z,14.73
2019-03-27T12:56:28.544Z,11.80
2019-03-27T12:59:11.004Z,14.30
2019-03-27T13:04:35.319Z,15.53
2019-03-27T13:07:17.699Z,14.97
2019-03-27T13:09:59.680Z,13.40
2019-03-27T13:12:42.070Z,13.22
2019-03-27T13:15:23.576Z,15.50
2019-03-27T13:18:05.261Z,12.70
2019-03-27T13:20:47.439Z,14.40
2019-03-27T13:23:29.138Z,11.33
2019-03-27T13:26:10.458Z,12.03
2019-03-27T13:29:22.877Z,12.57
2019-03-27T13:32:18.558Z,15.43
2019-03-27T13:35:27.002Z,12.17
2019-03-27T13:38:16.051Z,14.93
2019-03-27T13:41:06.466Z,11.53
2019-03-27T13:43:57.187Z,11.83
2019-03-27T13:47:05.722Z,13.63
2019-03-27T13:50:08.746Z,11.57
2019-03-27T13:52:50.190Z,12.37
2019-03-27T13:55:35.083Z,11.17
2019-03-27T13:58:16.776Z,12.93
2019-03-27T14:03:41.707Z,10.70
2019-03-27T14:06:23.693Z,13.30
2019-03-27T14:09:05.611Z,13.33
2019-03-27T14:11:47.543Z,13.77
2019-03-27T14:14:29.873Z,11.30
2019-03-27T14:17:12.649Z,9.53
2019-03-27T14:19:54.356Z,12.70
2019-03-27T14:22:36.748Z,11.17
2019-03-27T14:25:21.793Z,12.17
2019-03-27T14:28:02.391Z,9.83
2019-03-27T14:30:44.554Z,11.37
2019-03-27T14:33:25.939Z,11.13
2019-03-27T14:36:07.778Z,10.37
2019-03-27T14:38:49.936Z,10.20
2019-03-27T14:41:32.532Z,9.65
2019-03-27T14:44:14.982Z,9.97
2019-03-27T14:46:57.287Z,10.30
2019-03-27T14:49:38.871Z,10.57
2019-03-27T14:52:21.055Z,9.17
2019-03-27T14:55:03.244Z,11.20
2019-03-27T14:57:51.742Z,22.37
2019-03-27T15:00:42.323Z,18.07
2019-03-27T15:03:31.195Z,19.10
2019-03-27T15:06:36.537Z,12.87
2019-03-27T15:09:31.916Z,15.43
2019-03-27T15:12:02.929Z,10.60
2019-03-27T15:14:53.510Z,21.50
2019-03-27T15:17:42.517Z,13.60
2019-03-27T15:20:31.635Z,20.87
2019-03-27T15:23:20.688Z,14.40
2019-03-27T15:26:23.537Z,13.70
2019-03-27T15:29:21.407Z,10.43
2019-03-27T15:32:10.421Z,10.30
2019-03-27T15:35:20.395Z,20.17
2019-03-27T15:38:28.680Z,19.20
2019-03-27T15:41:37.196Z,19.40
2019-03-27T15:44:27.615Z,10.97
2019-03-27T15:47:18.494Z,17.00
2019-03-27T15:50:00.379Z,11.97
2019-03-27T15:52:42.580Z,11.13
2019-03-27T15:55:26.458Z,13.13
2019-03-27T15:58:08.694Z,12.27
2019-03-27T16:00:50.468Z,21.97
2019-03-27T16:03:33.001Z,22.93
2019-03-27T16:06:14.847Z,22.57
2019-03-27T16:08:56.989Z,20.90
2019-03-27T16:11:38.502Z,22.33
2019-03-27T16:14:20.666Z,20.43
2019-03-27T16:17:13.377Z,13.17
2019-03-27T16:19:46.934Z,16.43
2019-03-27T16:22:28.422Z,13.67
2019-03-27T16:27:50.480Z,15.63
2019-03-27T16:30:33.267Z,15.07
2019-03-27T16:33:03.040Z,16.20
2019-03-27T16:35:33.093Z,21.25
2019-03-27T16:38:02.824Z,22.47
2019-03-27T16:40:45.858Z,20.53
2019-03-27T16:43:15.534Z,21.70
2019-03-27T16:45:44.899Z,22.60
2019-03-27T16:48:14.800Z,21.03
2019-03-27T16:50:44.250Z,19.83
2019-03-27T16:53:14.942Z,16.77
2019-03-27T16:55:44.382Z,15.23
2019-03-27T16:58:13.916Z,25.93
2019-03-27T17:00:43.446Z,25.57
2019-03-27T17:03:12.966Z,21.53
2019-03-27T17:05:53.432Z,22.93
2019-03-27T17:08:13.578Z,19.67
2019-03-27T17:10:43.106Z,18.60
2019-03-27T17:13:12.566Z,19.67
2019-03-27T17:15:42.011Z,25.77
2019-03-27T17:18:11.533Z,16.17
2019-03-27T17:20:40.980Z,18.93
2019-03-27T17:23:18.111Z,16.63
2019-03-27T17:25:41.910Z,14.00
2019-03-27T17:28:11.525Z,13.13
2019-03-27T17:30:41.044Z,10.63
2019-03-27T17:33:10.558Z,17.17
2019-03-27T17:35:40.068Z,17.90
2019-03-27T17:38:11.124Z,15.70
2019-03-27T17:40:40.920Z,20.57
2019-03-27T17:43:10.483Z,20.63
2019-03-27T17:45:40.023Z,17.07
2019-03-27T17:48:09.550Z,19.70
2019-03-27T17:50:39.128Z,31.50
2019-03-27T17:53:08.599Z,22.83
2019-03-27T17:55:38.151Z,14.97
2019-03-27T17:58:07.990Z,13.80
2019-03-27T18:00:45.234Z,11.33
2019-03-27T18:03:15.026Z,14.43
2019-03-27T18:05:44.459Z,14.83
2019-03-27T18:08:14.066Z,13.37
2019-03-27T18:10:43.590Z,13.57
2019-03-27T18:13:13.157Z,13.80
2019-03-27T18:15:43.045Z,12.60
2019-03-27T18:18:12.512Z,13.57
2019-03-27T18:20:42.030Z,15.50
2019-03-27T18:23:11.482Z,15.93
2019-03-27T18:25:41.090Z,15.00
2019-03-27T18:28:10.638Z,11.67
2019-03-27T18:30:40.183Z,13.27
2019-03-27T18:33:09.634Z,11.50
2019-03-27T18:35:39.195Z,11.80
2019-03-27T18:38:08.650Z,12.73
2019-03-27T18:40:38.196Z,13.53
2019-03-27T18:43:07.754Z,32.37
2019-03-27T18:45:37.305Z,27.33
2019-03-27T18:48:07.019Z,21.33
2019-03-27T18:50:36.466Z,21.20
2019-03-27T18:53:06.037Z,24.80
2019-03-27T18:55:35.933Z,28.20
2019-03-27T18:58:05.441Z,13.97
2019-03-27T19:00:35.373Z,23.53
2019-03-27T19:03:05.186Z,25.67
2019-03-27T19:05:35.676Z,40.70
2019-03-27T19:08:05.181Z,33.07
2019-03-27T19:10:34.808Z,24.50
2019-03-27T19:13:04.202Z,19.17
2019-03-27T19:15:34.328Z,18.25
2019-03-27T19:18:04.162Z,17.17
2019-03-27T19:20:33.622Z,16.70
2019-03-27T19:23:03.118Z,15.17
2019-03-27T19:25:32.576Z,15.57
2019-03-27T19:28:02.158Z,17.93
2019-03-27T19:30:31.627Z,19.43
2019-03-27T19:33:01.185Z,18.30
2019-03-27T19:35:30.816Z,30.43
2019-03-27T19:38:00.181Z,26.77
2019-03-27T19:40:29.642Z,20.60
2019-03-27T19:42:59.144Z,23.60
2019-03-27T19:45:28.670Z,14.83
2019-03-27T19:47:58.210Z,17.37
2019-03-27T19:50:27.760Z,15.73
2019-03-27T19:52:57.262Z,15.50
2019-03-27T19:55:27.046Z,19.83
2019-03-27T19:57:56.535Z,15.37
2019-03-27T20:00:26.320Z,14.97
2019-03-27T20:02:56.023Z,15.60
2019-03-27T20:05:25.482Z,13.97
2019-03-27T20:07:55.260Z,14.43
2019-03-27T20:10:24.723Z,17.27
2019-03-27T20:12:54.222Z,13.20
2019-03-27T20:15:23.812Z,12.43
2019-03-27T20:17:53.344Z,14.80
2019-03-27T20:20:22.822Z,19.67
2019-03-27T20:22:52.182Z,17.47
2019-03-27T20:25:21.666Z,13.93
2019-03-27T20:27:51.389Z,14.23
2019-03-27T20:30:21.450Z,14.20
2019-03-27T20:32:50.876Z,11.47
2019-03-27T20:35:22.922Z,13.27
2019-03-27T20:37:51.640Z,13.50
2019-03-27T20:40:21.386Z,13.97
2019-03-27T20:42:52.373Z,15.17
2019-03-27T20:45:22.376Z,15.13
2019-03-27T20:47:52.207Z,15.87
2019-03-27T20:50:21.683Z,13.60
2019-03-27T20:52:51.279Z,16.30
2019-03-27T20:55:30.285Z,17.17
2019-03-27T20:57:51.859Z,15.30
2019-03-27T21:00:21.436Z,15.13
2019-03-27T21:02:50.871Z,13.73
2019-03-27T21:05:20.617Z,13.70
2019-03-27T21:07:50.283Z,15.70
2019-03-27T21:10:20.551Z,16.67
2019-03-27T21:12:50.271Z,13.67
2019-03-27T21:15:20.625Z,20.00
2019-03-27T21:17:50.539Z,15.23
2019-03-27T21:20:20.538Z,13.47
2019-03-27T21:22:50.178Z,17.03
2019-03-27T21:25:20.571Z,15.28
2019-03-27T21:27:50.221Z,17.43
2019-03-27T21:30:22.997Z,16.27
2019-03-27T21:32:51.765Z,18.70
2019-03-27T21:35:21.466Z,16.47
2019-03-27T21:37:50.982Z,18.43
2019-03-27T21:40:20.673Z,18.77
2019-03-27T21:42:50.334Z,17.67
2019-03-27T21:45:20.566Z,19.40
2019-03-27T21:47:50.313Z,18.60
2019-03-27T21:50:20.602Z,16.70
2019-03-27T21:53:00.636Z,15.80
2019-03-27T21:55:23.198Z,16.57
2019-03-27T21:57:52.910Z,16.10
2019-03-27T22:00:36.575Z,15.17
2019-03-27T22:03:08.213Z,16.57
2019-03-27T22:05:37.719Z,16.63
2019-03-27T22:08:07.459Z,16.80
2019-03-27T22:10:37.090Z,17.57
2019-03-27T22:13:06.607Z,17.73
2019-03-27T22:15:36.535Z,16.27
2019-03-27T22:18:06.393Z,17.50
2019-03-27T22:20:39.469Z,17.62
2019-03-27T22:23:07.876Z,17.57
2019-03-27T22:25:37.552Z,17.80
2019-03-27T22:28:07.014Z,17.50
2019-03-27T22:30:36.625Z,15.83
2019-03-27T22:33:25.533Z,14.27
2019-03-27T22:36:16.031Z,19.83
2019-03-27T22:39:27.283Z,15.80
2019-03-27T22:42:35.828Z,16.33
2019-03-27T22:45:44.137Z,20.40
2019-03-27T22:48:34.901Z,19.93
2019-03-27T22:51:16.533Z,15.93
2019-03-27T22:53:58.802Z,18.90
2019-03-27T22:56:40.918Z,15.98
2019-03-27T22:59:23.090Z,17.47
2019-03-27T23:02:04.891Z,21.43
2019-03-27T23:04:47.060Z,18.95
2019-03-27T23:07:28.523Z,15.73
2019-03-27T23:10:10.199Z,17.03
2019-03-27T23:12:52.227Z,18.87
2019-03-27T23:15:34.381Z,15.53
2019-03-27T23:18:16.483Z,20.07
2019-03-27T23:20:58.384Z,16.43
2019-03-27T23:23:40.653Z,17.52
2019-03-27T23:26:22.328Z,17.50
2019-03-27T23:29:04.095Z,16.80
2019-03-27T23:31:45.660Z,19.23
2019-03-27T23:34:27.881Z,15.47
2019-03-27T23:37:10.175Z,16.83
2019-03-27T23:39:51.858Z,17.97
2019-03-27T23:42:34.125Z,16.53
2019-03-27T23:45:16.115Z,17.07
2019-03-27T23:47:58.503Z,17.47
2019-03-27T23:50:39.984Z,18.27
2019-03-27T23:53:22.310Z,15.23
2019-03-27T23:56:15.913Z,14.97
2019-03-27T23:58:47.802Z,14.60
